sensor_id;sensor_type;location;lat;lon;timestamp;P1;durP1;ratioP1;P2;durP2;ratioP2
6121;SDS011;3091;51.506;7.672;2023-06-10T00:00:06;13.33;;;12.93;;
6121;SDS011;3091;51.506;7.672;2023-06-10T00:02:33;13.67;;;13.17;;
6121;SDS011;3091;51.506;7.672;2023-06-10T00:04:59;14.10;;;13.60;;
6121;SDS011;3091;51.506;7.672;2023-06-10T00:07:25;13.63;;;13.23;;
6121;SDS011;3091;51.506;7.672;2023-06-10T00:09:51;13.67;;;13.27;;
6121;SDS011;3091;51.506;7.672;2023-06-10T00:12:17;13.03;;;12.63;;
6121;SDS011;3091;51.506;7.672;2023-06-10T00:14:45;13.60;;;13.20;;
6121;SDS011;3091;51.506;7.672;2023-06-10T00:17:11;13.77;;;13.37;;
6121;SDS011;3091;51.506;7.672;2023-06-10T00:19:37;14.73;;;14.23;;
6121;SDS011;3091;51.506;7.672;2023-06-10T00:22:06;13.63;;;13.23;;
6121;SDS011;3091;51.506;7.672;2023-06-10T00:24:33;13.20;;;12.80;;
6121;SDS011;3091;51.506;7.672;2023-06-10T00:27:00;13.93;;;13.43;;
6121;SDS011;3091;51.506;7.672;2023-06-10T00:29:26;14.33;;;13.83;;
6121;SDS011;3091;51.506;7.672;2023-06-10T00:31:52;13.30;;;12.90;;
6121;SDS011;3091;51.506;7.672;2023-06-10T00:34:22;13.20;;;12.80;;
6121;SDS011;3091;51.506;7.672;2023-06-10T00:36:48;13.50;;;13.10;;
6121;SDS011;3091;51.506;7.672;2023-06-10T00:39:14;13.20;;;12.80;;
6121;SDS011;3091;51.506;7.672;2023-06-10T00:41:41;14.00;;;13.40;;
6121;SDS011;3091;51.506;7.672;2023-06-10T00:44:07;13.40;;;12.97;;
6121;SDS011;3091;51.506;7.672;2023-06-10T00:46:33;13.90;;;13.40;;
6121;SDS011;3091;51.506;7.672;2023-06-10T00:49:00;14.03;;;13.53;;
6121;SDS011;3091;51.506;7.672;2023-06-10T00:51:26;13.80;;;13.30;;
6121;SDS011;3091;51.506;7.672;2023-06-10T00:53:52;13.80;;;13.30;;
6121;SDS011;3091;51.506;7.672;2023-06-10T00:56:18;13.93;;;13.43;;
6121;SDS011;3091;51.506;7.672;2023-06-10T00:58:44;13.40;;;13.00;;
6121;SDS011;3091;51.506;7.672;2023-06-10T01:01:10;15.27;;;14.67;;
6121;SDS011;3091;51.506;7.672;2023-06-10T01:03:37;14.90;;;14.40;;
6121;SDS011;3091;51.506;7.672;2023-06-10T01:11:21;13.00;;;12.60;;
6121;SDS011;3091;51.506;7.672;2023-06-10T01:13:50;12.60;;;12.20;;
6121;SDS011;3091;51.506;7.672;2023-06-10T01:16:18;12.60;;;12.20;;
6121;SDS011;3091;51.506;7.672;2023-06-10T01:18:44;12.83;;;12.43;;
6121;SDS011;3091;51.506;7.672;2023-06-10T01:21:19;15.30;;;14.80;;
6121;SDS011;3091;51.506;7.672;2023-06-10T01:23:46;15.70;;;15.20;;
6121;SDS011;3091;51.506;7.672;2023-06-10T01:26:12;15.17;;;14.67;;
6121;SDS011;3091;51.506;7.672;2023-06-10T01:28:48;15.70;;;15.20;;
6121;SDS011;3091;51.506;7.672;2023-06-10T01:31:41;14.13;;;13.73;;
6121;SDS011;3091;51.506;7.672;2023-06-10T01:34:11;14.03;;;13.63;;
6121;SDS011;3091;51.506;7.672;2023-06-10T01:36:38;15.10;;;14.60;;
6121;SDS011;3091;51.506;7.672;2023-06-10T01:39:06;16.83;;;15.87;;
6121;SDS011;3091;51.506;7.672;2023-06-10T01:41:33;14.57;;;14.07;;
6121;SDS011;3091;51.506;7.672;2023-06-10T01:44:00;15.47;;;14.97;;
6121;SDS011;3091;51.506;7.672;2023-06-10T01:46:26;15.67;;;15.17;;
6121;SDS011;3091;51.506;7.672;2023-06-10T01:48:52;16.87;;;16.27;;
6121;SDS011;3091;51.506;7.672;2023-06-10T01:51:18;16.90;;;16.30;;
6121;SDS011;3091;51.506;7.672;2023-06-10T01:53:44;16.10;;;15.60;;
6121;SDS011;3091;51.506;7.672;2023-06-10T01:56:13;16.33;;;15.83;;
6121;SDS011;3091;51.506;7.672;2023-06-10T01:58:42;30.87;;;29.80;;
6121;SDS011;3091;51.506;7.672;2023-06-10T02:01:09;16.10;;;15.60;;
6121;SDS011;3091;51.506;7.672;2023-06-10T02:03:35;16.20;;;15.70;;
6121;SDS011;3091;51.506;7.672;2023-06-10T02:06:01;18.00;;;17.30;;
6121;SDS011;3091;51.506;7.672;2023-06-10T02:08:27;17.07;;;16.47;;
6121;SDS011;3091;51.506;7.672;2023-06-10T02:10:53;19.10;;;18.40;;
6121;SDS011;3091;51.506;7.672;2023-06-10T02:13:19;17.60;;;17.00;;
6121;SDS011;3091;51.506;7.672;2023-06-10T02:15:45;17.80;;;17.10;;
6121;SDS011;3091;51.506;7.672;2023-06-10T02:18:11;17.20;;;16.60;;
6121;SDS011;3091;51.506;7.672;2023-06-10T02:20:38;16.97;;;16.37;;
6121;SDS011;3091;51.506;7.672;2023-06-10T02:23:04;17.10;;;16.50;;
6121;SDS011;3091;51.506;7.672;2023-06-10T02:25:32;17.10;;;16.50;;
6121;SDS011;3091;51.506;7.672;2023-06-10T02:27:58;17.60;;;16.90;;
6121;SDS011;3091;51.506;7.672;2023-06-10T02:30:24;17.30;;;16.60;;
6121;SDS011;3091;51.506;7.672;2023-06-10T02:32:50;18.20;;;17.50;;
6121;SDS011;3091;51.506;7.672;2023-06-10T02:35:17;19.93;;;19.00;;
6121;SDS011;3091;51.506;7.672;2023-06-10T02:37:43;18.27;;;17.57;;
6121;SDS011;3091;51.506;7.672;2023-06-10T02:40:10;17.20;;;16.60;;
6121;SDS011;3091;51.506;7.672;2023-06-10T02:42:36;17.40;;;16.80;;
6121;SDS011;3091;51.506;7.672;2023-06-10T02:45:02;17.47;;;16.80;;
6121;SDS011;3091;51.506;7.672;2023-06-10T02:47:29;17.77;;;17.07;;
6121;SDS011;3091;51.506;7.672;2023-06-10T02:49:55;17.90;;;17.20;;
6121;SDS011;3091;51.506;7.672;2023-06-10T02:52:21;18.00;;;17.30;;
6121;SDS011;3091;51.506;7.672;2023-06-10T02:54:47;18.30;;;17.60;;
6121;SDS011;3091;51.506;7.672;2023-06-10T02:57:14;18.97;;;18.27;;
6121;SDS011;3091;51.506;7.672;2023-06-10T02:59:40;17.73;;;17.13;;
6121;SDS011;3091;51.506;7.672;2023-06-10T03:02:06;17.60;;;17.00;;
6121;SDS011;3091;51.506;7.672;2023-06-10T03:04:32;17.40;;;16.80;;
6121;SDS011;3091;51.506;7.672;2023-06-10T03:06:58;17.57;;;16.97;;
6121;SDS011;3091;51.506;7.672;2023-06-10T03:09:28;17.30;;;16.70;;
6121;SDS011;3091;51.506;7.672;2023-06-10T03:11:54;17.00;;;16.40;;
6121;SDS011;3091;51.506;7.672;2023-06-10T03:14:20;17.70;;;17.10;;
6121;SDS011;3091;51.506;7.672;2023-06-10T03:16:46;18.17;;;17.53;;
6121;SDS011;3091;51.506;7.672;2023-06-10T03:19:13;16.57;;;16.03;;
6121;SDS011;3091;51.506;7.672;2023-06-10T03:21:43;17.17;;;16.57;;
6121;SDS011;3091;51.506;7.672;2023-06-10T03:24:09;17.00;;;16.40;;
6121;SDS011;3091;51.506;7.672;2023-06-10T03:26:36;20.03;;;19.30;;
6121;SDS011;3091;51.506;7.672;2023-06-10T03:29:02;17.20;;;16.60;;
6121;SDS011;3091;51.506;7.672;2023-06-10T03:31:28;16.60;;;16.10;;
6121;SDS011;3091;51.506;7.672;2023-06-10T03:33:54;16.10;;;15.60;;
6121;SDS011;3091;51.506;7.672;2023-06-10T03:36:20;17.37;;;16.77;;
6121;SDS011;3091;51.506;7.672;2023-06-10T03:38:46;16.60;;;16.00;;
6121;SDS011;3091;51.506;7.672;2023-06-10T03:41:12;16.40;;;15.80;;
6121;SDS011;3091;51.506;7.672;2023-06-10T03:43:40;16.20;;;15.60;;
6121;SDS011;3091;51.506;7.672;2023-06-10T03:46:06;17.27;;;16.57;;
6121;SDS011;3091;51.506;7.672;2023-06-10T03:48:32;17.40;;;16.60;;
6121;SDS011;3091;51.506;7.672;2023-06-10T03:50:58;15.77;;;15.20;;
6121;SDS011;3091;51.506;7.672;2023-06-10T03:53:24;16.20;;;15.60;;
6121;SDS011;3091;51.506;7.672;2023-06-10T03:55:50;16.20;;;15.60;;
6121;SDS011;3091;51.506;7.672;2023-06-10T03:58:16;16.70;;;16.10;;
6121;SDS011;3091;51.506;7.672;2023-06-10T04:00:43;15.03;;;14.53;;
6121;SDS011;3091;51.506;7.672;2023-06-10T04:03:10;15.60;;;15.10;;
6121;SDS011;3091;51.506;7.672;2023-06-10T04:05:39;16.23;;;15.53;;
6121;SDS011;3091;51.506;7.672;2023-06-10T04:08:06;13.90;;;13.50;;
6121;SDS011;3091;51.506;7.672;2023-06-10T04:10:32;16.20;;;15.67;;
6121;SDS011;3091;51.506;7.672;2023-06-10T04:12:58;14.60;;;14.10;;
6121;SDS011;3091;51.506;7.672;2023-06-10T04:15:24;14.43;;;13.93;;
6121;SDS011;3091;51.506;7.672;2023-06-10T04:17:53;15.43;;;14.83;;
6121;SDS011;3091;51.506;7.672;2023-06-10T04:20:19;15.43;;;14.93;;
6121;SDS011;3091;51.506;7.672;2023-06-10T04:22:45;15.60;;;15.00;;
6121;SDS011;3091;51.506;7.672;2023-06-10T04:25:13;14.80;;;14.30;;
6121;SDS011;3091;51.506;7.672;2023-06-10T04:27:39;14.77;;;14.27;;
6121;SDS011;3091;51.506;7.672;2023-06-10T04:30:05;13.37;;;12.97;;
6121;SDS011;3091;51.506;7.672;2023-06-10T04:32:32;15.10;;;14.60;;
6121;SDS011;3091;51.506;7.672;2023-06-10T04:34:59;14.10;;;13.60;;
6121;SDS011;3091;51.506;7.672;2023-06-10T04:37:27;12.30;;;11.90;;
6121;SDS011;3091;51.506;7.672;2023-06-10T04:39:56;13.77;;;13.10;;
6121;SDS011;3091;51.506;7.672;2023-06-10T04:42:24;12.50;;;12.10;;
6121;SDS011;3091;51.506;7.672;2023-06-10T04:44:50;11.10;;;10.70;;
6121;SDS011;3091;51.506;7.672;2023-06-10T04:47:16;10.63;;;10.30;;
6121;SDS011;3091;51.506;7.672;2023-06-10T04:49:44;11.10;;;10.80;;
6121;SDS011;3091;51.506;7.672;2023-06-10T04:52:10;12.83;;;12.40;;
6121;SDS011;3091;51.506;7.672;2023-06-10T04:54:37;12.60;;;12.20;;
6121;SDS011;3091;51.506;7.672;2023-06-10T04:57:04;14.00;;;13.50;;
6121;SDS011;3091;51.506;7.672;2023-06-10T04:59:32;11.80;;;11.30;;
6121;SDS011;3091;51.506;7.672;2023-06-10T05:02:02;12.33;;;11.90;;
6121;SDS011;3091;51.506;7.672;2023-06-10T05:04:28;10.90;;;10.60;;
6121;SDS011;3091;51.506;7.672;2023-06-10T05:06:54;10.60;;;10.20;;
6121;SDS011;3091;51.506;7.672;2023-06-10T05:09:20;10.40;;;10.10;;
6121;SDS011;3091;51.506;7.672;2023-06-10T05:11:46;10.90;;;10.60;;
6121;SDS011;3091;51.506;7.672;2023-06-10T05:14:13;10.80;;;10.50;;
6121;SDS011;3091;51.506;7.672;2023-06-10T05:16:41;10.60;;;10.30;;
6121;SDS011;3091;51.506;7.672;2023-06-10T05:19:08;12.17;;;11.77;;
6121;SDS011;3091;51.506;7.672;2023-06-10T05:21:34;10.50;;;10.20;;
6121;SDS011;3091;51.506;7.672;2023-06-10T05:24:00;10.30;;;10.00;;
6121;SDS011;3091;51.506;7.672;2023-06-10T05:26:27;10.60;;;10.30;;
6121;SDS011;3091;51.506;7.672;2023-06-10T05:28:53;10.60;;;10.30;;
6121;SDS011;3091;51.506;7.672;2023-06-10T05:31:19;13.90;;;13.30;;
6121;SDS011;3091;51.506;7.672;2023-06-10T05:33:46;12.10;;;11.70;;
6121;SDS011;3091;51.506;7.672;2023-06-10T05:36:12;12.30;;;11.90;;
6121;SDS011;3091;51.506;7.672;2023-06-10T05:38:38;12.30;;;11.90;;
6121;SDS011;3091;51.506;7.672;2023-06-10T05:41:04;12.53;;;12.13;;
6121;SDS011;3091;51.506;7.672;2023-06-10T05:43:30;12.47;;;12.07;;
6121;SDS011;3091;51.506;7.672;2023-06-10T05:45:56;12.30;;;11.90;;
6121;SDS011;3091;51.506;7.672;2023-06-10T05:48:22;12.97;;;12.47;;
6121;SDS011;3091;51.506;7.672;2023-06-10T05:50:48;12.30;;;11.90;;
6121;SDS011;3091;51.506;7.672;2023-06-10T05:53:14;12.00;;;11.60;;
6121;SDS011;3091;51.506;7.672;2023-06-10T05:55:43;11.17;;;10.87;;
6121;SDS011;3091;51.506;7.672;2023-06-10T05:58:10;11.50;;;11.10;;
6121;SDS011;3091;51.506;7.672;2023-06-10T06:00:37;11.60;;;11.20;;
6121;SDS011;3091;51.506;7.672;2023-06-10T06:03:03;11.50;;;11.10;;
6121;SDS011;3091;51.506;7.672;2023-06-10T06:05:29;12.00;;;11.60;;
6121;SDS011;3091;51.506;7.672;2023-06-10T06:08:00;11.70;;;11.30;;
6121;SDS011;3091;51.506;7.672;2023-06-10T06:10:28;13.77;;;13.27;;
6121;SDS011;3091;51.506;7.672;2023-06-10T06:12:54;12.00;;;11.60;;
6121;SDS011;3091;51.506;7.672;2023-06-10T06:15:20;12.77;;;12.27;;
6121;SDS011;3091;51.506;7.672;2023-06-10T06:17:46;11.83;;;11.43;;
6121;SDS011;3091;51.506;7.672;2023-06-10T06:20:12;11.97;;;11.57;;
6121;SDS011;3091;51.506;7.672;2023-06-10T06:22:38;12.20;;;11.80;;
6121;SDS011;3091;51.506;7.672;2023-06-10T06:25:07;11.90;;;11.50;;
6121;SDS011;3091;51.506;7.672;2023-06-10T06:27:33;13.13;;;12.63;;
6121;SDS011;3091;51.506;7.672;2023-06-10T06:29:59;12.03;;;11.63;;
6121;SDS011;3091;51.506;7.672;2023-06-10T06:32:25;12.13;;;11.73;;
6121;SDS011;3091;51.506;7.672;2023-06-10T06:34:52;11.90;;;11.50;;
6121;SDS011;3091;51.506;7.672;2023-06-10T06:37:20;11.73;;;11.33;;
6121;SDS011;3091;51.506;7.672;2023-06-10T06:39:47;12.30;;;11.90;;
6121;SDS011;3091;51.506;7.672;2023-06-10T06:42:13;14.33;;;13.50;;
6121;SDS011;3091;51.506;7.672;2023-06-10T06:44:39;12.70;;;12.30;;
6121;SDS011;3091;51.506;7.672;2023-06-10T06:47:06;13.30;;;12.80;;
6121;SDS011;3091;51.506;7.672;2023-06-10T06:49:32;12.70;;;12.30;;
6121;SDS011;3091;51.506;7.672;2023-06-10T06:52:00;12.23;;;11.83;;
6121;SDS011;3091;51.506;7.672;2023-06-10T06:54:26;12.67;;;12.27;;
6121;SDS011;3091;51.506;7.672;2023-06-10T06:56:52;15.30;;;14.70;;
6121;SDS011;3091;51.506;7.672;2023-06-10T06:59:18;12.50;;;12.10;;
6121;SDS011;3091;51.506;7.672;2023-06-10T07:01:44;12.57;;;12.17;;
6121;SDS011;3091;51.506;7.672;2023-06-10T07:04:10;13.03;;;12.53;;
6121;SDS011;3091;51.506;7.672;2023-06-10T07:06:36;13.43;;;12.93;;
6121;SDS011;3091;51.506;7.672;2023-06-10T07:09:03;12.67;;;12.27;;
6121;SDS011;3091;51.506;7.672;2023-06-10T07:11:29;13.63;;;13.03;;
6121;SDS011;3091;51.506;7.672;2023-06-10T07:13:55;13.60;;;13.10;;
6121;SDS011;3091;51.506;7.672;2023-06-10T07:16:22;12.30;;;11.90;;
6121;SDS011;3091;51.506;7.672;2023-06-10T07:18:48;12.70;;;12.30;;
6121;SDS011;3091;51.506;7.672;2023-06-10T07:21:14;10.73;;;10.43;;
6121;SDS011;3091;51.506;7.672;2023-06-10T07:23:43;11.47;;;11.07;;
6121;SDS011;3091;51.506;7.672;2023-06-10T07:26:09;10.00;;;9.70;;
6121;SDS011;3091;51.506;7.672;2023-06-10T07:28:39;10.17;;;9.87;;
6121;SDS011;3091;51.506;7.672;2023-06-10T07:31:05;12.67;;;12.20;;
6121;SDS011;3091;51.506;7.672;2023-06-10T07:33:31;12.30;;;11.90;;
6121;SDS011;3091;51.506;7.672;2023-06-10T07:35:57;10.90;;;10.57;;
6121;SDS011;3091;51.506;7.672;2023-06-10T07:38:29;11.50;;;11.10;;
6121;SDS011;3091;51.506;7.672;2023-06-10T07:40:56;12.93;;;12.43;;
6121;SDS011;3091;51.506;7.672;2023-06-10T07:43:23;11.70;;;11.20;;
6121;SDS011;3091;51.506;7.672;2023-06-10T07:45:49;11.20;;;10.90;;
6121;SDS011;3091;51.506;7.672;2023-06-10T07:48:15;11.10;;;10.70;;
6121;SDS011;3091;51.506;7.672;2023-06-10T07:50:41;13.17;;;12.77;;
6121;SDS011;3091;51.506;7.672;2023-06-10T07:53:08;11.00;;;10.70;;
6121;SDS011;3091;51.506;7.672;2023-06-10T07:55:34;13.50;;;12.73;;
6121;SDS011;3091;51.506;7.672;2023-06-10T07:58:00;12.23;;;11.83;;
6121;SDS011;3091;51.506;7.672;2023-06-10T08:00:26;12.03;;;11.63;;
6121;SDS011;3091;51.506;7.672;2023-06-10T08:02:52;11.70;;;11.30;;
6121;SDS011;3091;51.506;7.672;2023-06-10T08:05:18;11.73;;;11.33;;
6121;SDS011;3091;51.506;7.672;2023-06-10T08:07:46;12.70;;;12.30;;
6121;SDS011;3091;51.506;7.672;2023-06-10T08:10:12;11.83;;;11.43;;
6121;SDS011;3091;51.506;7.672;2023-06-10T08:12:38;11.03;;;10.73;;
6121;SDS011;3091;51.506;7.672;2023-06-10T08:15:05;12.33;;;11.70;;
6121;SDS011;3091;51.506;7.672;2023-06-10T08:17:31;11.63;;;11.23;;
6121;SDS011;3091;51.506;7.672;2023-06-10T08:19:57;12.63;;;12.13;;
6121;SDS011;3091;51.506;7.672;2023-06-10T08:22:23;12.00;;;11.60;;
6121;SDS011;3091;51.506;7.672;2023-06-10T08:24:49;11.53;;;11.13;;
6121;SDS011;3091;51.506;7.672;2023-06-10T08:27:15;13.73;;;13.13;;
6121;SDS011;3091;51.506;7.672;2023-06-10T08:29:41;12.00;;;11.60;;
6121;SDS011;3091;51.506;7.672;2023-06-10T08:32:15;14.67;;;13.83;;
6121;SDS011;3091;51.506;7.672;2023-06-10T08:34:41;12.60;;;12.20;;
6121;SDS011;3091;51.506;7.672;2023-06-10T08:37:07;11.53;;;11.13;;
6121;SDS011;3091;51.506;7.672;2023-06-10T08:39:33;11.77;;;11.37;;
6121;SDS011;3091;51.506;7.672;2023-06-10T08:44:32;12.60;;;12.13;;
6121;SDS011;3091;51.506;7.672;2023-06-10T08:47:04;11.03;;;10.70;;
6121;SDS011;3091;51.506;7.672;2023-06-10T08:49:34;11.80;;;11.40;;
6121;SDS011;3091;51.506;7.672;2023-06-10T08:52:04;11.50;;;11.10;;
6121;SDS011;3091;51.506;7.672;2023-06-10T08:54:32;10.73;;;10.43;;
6121;SDS011;3091;51.506;7.672;2023-06-10T08:57:05;13.83;;;13.33;;
6121;SDS011;3091;51.506;7.672;2023-06-10T08:59:31;11.57;;;11.17;;
6121;SDS011;3091;51.506;7.672;2023-06-10T09:01:57;12.83;;;12.43;;
6121;SDS011;3091;51.506;7.672;2023-06-10T09:04:24;12.20;;;11.80;;
6121;SDS011;3091;51.506;7.672;2023-06-10T09:06:50;11.20;;;10.80;;
6121;SDS011;3091;51.506;7.672;2023-06-10T09:09:19;11.73;;;11.33;;
6121;SDS011;3091;51.506;7.672;2023-06-10T09:11:46;11.70;;;11.30;;
6121;SDS011;3091;51.506;7.672;2023-06-10T09:14:12;11.80;;;11.40;;
6121;SDS011;3091;51.506;7.672;2023-06-10T09:16:39;11.10;;;10.70;;
6121;SDS011;3091;51.506;7.672;2023-06-10T09:19:06;12.50;;;12.10;;
6121;SDS011;3091;51.506;7.672;2023-06-10T09:21:35;13.60;;;13.10;;
6121;SDS011;3091;51.506;7.672;2023-06-10T09:24:01;12.73;;;12.30;;
6121;SDS011;3091;51.506;7.672;2023-06-10T09:26:30;12.67;;;12.03;;
6121;SDS011;3091;51.506;7.672;2023-06-10T09:29:03;12.43;;;11.93;;
6121;SDS011;3091;51.506;7.672;2023-06-10T09:31:30;12.43;;;11.93;;
6121;SDS011;3091;51.506;7.672;2023-06-10T09:34:04;11.37;;;10.97;;
6121;SDS011;3091;51.506;7.672;2023-06-10T09:36:30;11.73;;;11.33;;
6121;SDS011;3091;51.506;7.672;2023-06-10T09:38:56;12.00;;;11.60;;
6121;SDS011;3091;51.506;7.672;2023-06-10T09:41:31;11.40;;;11.00;;
6121;SDS011;3091;51.506;7.672;2023-06-10T09:43:58;11.80;;;11.40;;
6121;SDS011;3091;51.506;7.672;2023-06-10T09:46:24;12.53;;;12.13;;
6121;SDS011;3091;51.506;7.672;2023-06-10T09:48:50;13.70;;;13.20;;
6121;SDS011;3091;51.506;7.672;2023-06-10T09:51:17;13.97;;;13.10;;
6121;SDS011;3091;51.506;7.672;2023-06-10T09:53:44;13.30;;;12.70;;
6121;SDS011;3091;51.506;7.672;2023-06-10T09:56:13;13.67;;;13.17;;
6121;SDS011;3091;51.506;7.672;2023-06-10T09:58:39;14.10;;;13.60;;
6121;SDS011;3091;51.506;7.672;2023-06-10T10:01:08;14.23;;;13.43;;
6121;SDS011;3091;51.506;7.672;2023-06-10T10:03:42;13.40;;;12.90;;
6121;SDS011;3091;51.506;7.672;2023-06-10T10:06:09;12.43;;;12.03;;
6121;SDS011;3091;51.506;7.672;2023-06-10T10:08:35;11.60;;;11.20;;
6121;SDS011;3091;51.506;7.672;2023-06-10T10:11:01;12.07;;;11.57;;
6121;SDS011;3091;51.506;7.672;2023-06-10T10:13:28;12.73;;;12.23;;
6121;SDS011;3091;51.506;7.672;2023-06-10T10:15:56;11.50;;;11.10;;
6121;SDS011;3091;51.506;7.672;2023-06-10T10:18:22;12.00;;;11.60;;
6121;SDS011;3091;51.506;7.672;2023-06-10T10:20:53;12.30;;;11.90;;
6121;SDS011;3091;51.506;7.672;2023-06-10T10:23:29;12.30;;;11.90;;
6121;SDS011;3091;51.506;7.672;2023-06-10T10:25:57;11.87;;;11.47;;
6121;SDS011;3091;51.506;7.672;2023-06-10T10:28:27;11.67;;;11.30;;
6121;SDS011;3091;51.506;7.672;2023-06-10T10:31:01;12.10;;;11.70;;
6121;SDS011;3091;51.506;7.672;2023-06-10T10:33:40;12.00;;;11.60;;
6121;SDS011;3091;51.506;7.672;2023-06-10T10:36:08;13.33;;;12.83;;
6121;SDS011;3091;51.506;7.672;2023-06-10T10:38:41;13.37;;;12.87;;
6121;SDS011;3091;51.506;7.672;2023-06-10T10:41:07;13.40;;;12.90;;
6121;SDS011;3091;51.506;7.672;2023-06-10T10:43:34;13.03;;;12.60;;
6121;SDS011;3091;51.506;7.672;2023-06-10T10:46:01;14.13;;;13.57;;
6121;SDS011;3091;51.506;7.672;2023-06-10T10:48:35;14.07;;;13.57;;
6121;SDS011;3091;51.506;7.672;2023-06-10T10:51:02;13.77;;;13.07;;
6121;SDS011;3091;51.506;7.672;2023-06-10T10:53:29;12.90;;;12.50;;
6121;SDS011;3091;51.506;7.672;2023-06-10T10:56:14;13.17;;;12.70;;
6121;SDS011;3091;51.506;7.672;2023-06-10T10:58:40;14.03;;;13.53;;
6121;SDS011;3091;51.506;7.672;2023-06-10T11:01:10;12.63;;;12.23;;
6121;SDS011;3091;51.506;7.672;2023-06-10T11:03:41;12.00;;;11.60;;
6121;SDS011;3091;51.506;7.672;2023-06-10T11:06:13;12.73;;;12.23;;
6121;SDS011;3091;51.506;7.672;2023-06-10T11:13:58;13.43;;;12.83;;
6121;SDS011;3091;51.506;7.672;2023-06-10T11:16:29;12.77;;;12.20;;
6121;SDS011;3091;51.506;7.672;2023-06-10T11:18:57;14.50;;;12.30;;
6121;SDS011;3091;51.506;7.672;2023-06-10T11:21:23;12.67;;;12.27;;
6121;SDS011;3091;51.506;7.672;2023-06-10T11:23:50;12.10;;;11.60;;
6121;SDS011;3091;51.506;7.672;2023-06-10T11:31:21;13.00;;;12.30;;
6121;SDS011;3091;51.506;7.672;2023-06-10T11:33:48;12.00;;;11.60;;
6121;SDS011;3091;51.506;7.672;2023-06-10T11:36:14;13.17;;;12.67;;
6121;SDS011;3091;51.506;7.672;2023-06-10T11:38:40;12.67;;;12.17;;
6121;SDS011;3091;51.506;7.672;2023-06-10T11:41:06;12.50;;;12.10;;
6121;SDS011;3091;51.506;7.672;2023-06-10T11:43:33;13.20;;;12.70;;
6121;SDS011;3091;51.506;7.672;2023-06-10T11:45:59;11.83;;;11.43;;
6121;SDS011;3091;51.506;7.672;2023-06-10T11:48:26;11.77;;;11.37;;
6121;SDS011;3091;51.506;7.672;2023-06-10T11:50:56;12.47;;;11.97;;
6121;SDS011;3091;51.506;7.672;2023-06-10T11:53:22;12.10;;;11.53;;
6121;SDS011;3091;51.506;7.672;2023-06-10T11:55:49;12.37;;;11.97;;
6121;SDS011;3091;51.506;7.672;2023-06-10T11:58:16;13.10;;;12.60;;
6121;SDS011;3091;51.506;7.672;2023-06-10T12:00:52;11.20;;;10.80;;
6121;SDS011;3091;51.506;7.672;2023-06-10T12:03:21;11.83;;;11.43;;
6121;SDS011;3091;51.506;7.672;2023-06-10T12:05:55;11.93;;;11.53;;
6121;SDS011;3091;51.506;7.672;2023-06-10T12:08:21;13.63;;;13.10;;
6121;SDS011;3091;51.506;7.672;2023-06-10T12:10:47;14.03;;;13.53;;
6121;SDS011;3091;51.506;7.672;2023-06-10T12:13:13;13.30;;;12.80;;
6121;SDS011;3091;51.506;7.672;2023-06-10T12:15:39;14.07;;;13.57;;
6121;SDS011;3091;51.506;7.672;2023-06-10T12:18:05;14.13;;;13.60;;
6121;SDS011;3091;51.506;7.672;2023-06-10T12:20:32;12.93;;;12.53;;
6121;SDS011;3091;51.506;7.672;2023-06-10T12:23:08;11.80;;;11.40;;
6121;SDS011;3091;51.506;7.672;2023-06-10T12:25:35;12.03;;;11.63;;
6121;SDS011;3091;51.506;7.672;2023-06-10T12:28:03;12.33;;;11.93;;
6121;SDS011;3091;51.506;7.672;2023-06-10T12:30:30;13.53;;;12.93;;
6121;SDS011;3091;51.506;7.672;2023-06-10T12:32:56;11.80;;;11.40;;
6121;SDS011;3091;51.506;7.672;2023-06-10T12:35:23;13.90;;;12.47;;
6121;SDS011;3091;51.506;7.672;2023-06-10T12:37:57;12.40;;;11.97;;
6121;SDS011;3091;51.506;7.672;2023-06-10T12:40:28;11.43;;;11.03;;
6121;SDS011;3091;51.506;7.672;2023-06-10T12:42:54;12.13;;;11.73;;
6121;SDS011;3091;51.506;7.672;2023-06-10T12:50:31;12.45;;;12.05;;
6121;SDS011;3091;51.506;7.672;2023-06-10T12:52:58;11.30;;;11.00;;
6121;SDS011;3091;51.506;7.672;2023-06-10T12:55:25;12.88;;;12.38;;
6121;SDS011;3091;51.506;7.672;2023-06-10T12:57:51;16.13;;;15.20;;
6121;SDS011;3091;51.506;7.672;2023-06-10T13:00:18;12.20;;;11.80;;
6121;SDS011;3091;51.506;7.672;2023-06-10T13:02:44;13.75;;;13.15;;
6121;SDS011;3091;51.506;7.672;2023-06-10T13:05:10;13.95;;;13.35;;
6121;SDS011;3091;51.506;7.672;2023-06-10T13:07:36;12.35;;;11.95;;
6121;SDS011;3091;51.506;7.672;2023-06-10T13:10:02;13.23;;;12.73;;
6121;SDS011;3091;51.506;7.672;2023-06-10T13:12:28;15.13;;;14.30;;
6121;SDS011;3091;51.506;7.672;2023-06-10T13:14:55;14.77;;;14.17;;
6121;SDS011;3091;51.506;7.672;2023-06-10T13:17:21;13.25;;;12.85;;
6121;SDS011;3091;51.506;7.672;2023-06-10T13:19:47;13.43;;;13.00;;
6121;SDS011;3091;51.506;7.672;2023-06-10T13:22:13;11.10;;;10.80;;
6121;SDS011;3091;51.506;7.672;2023-06-10T13:24:39;13.87;;;13.27;;
6121;SDS011;3091;51.506;7.672;2023-06-10T13:27:08;12.95;;;12.45;;
6121;SDS011;3091;51.506;7.672;2023-06-10T13:29:34;12.23;;;11.83;;
6121;SDS011;3091;51.506;7.672;2023-06-10T13:32:00;11.90;;;11.50;;
6121;SDS011;3091;51.506;7.672;2023-06-10T13:34:26;13.00;;;12.40;;
6121;SDS011;3091;51.506;7.672;2023-06-10T13:36:53;11.53;;;11.13;;
6121;SDS011;3091;51.506;7.672;2023-06-10T13:39:19;13.02;;;12.52;;
6121;SDS011;3091;51.506;7.672;2023-06-10T13:41:48;13.30;;;12.80;;
6121;SDS011;3091;51.506;7.672;2023-06-10T13:44:13;14.23;;;13.63;;
6121;SDS011;3091;51.506;7.672;2023-06-10T13:46:40;12.87;;;12.47;;
6121;SDS011;3091;51.506;7.672;2023-06-10T13:49:06;12.82;;;12.32;;
6121;SDS011;3091;51.506;7.672;2023-06-10T13:51:32;11.63;;;11.23;;
6121;SDS011;3091;51.506;7.672;2023-06-10T13:53:58;11.77;;;11.38;;
6121;SDS011;3091;51.506;7.672;2023-06-10T13:56:24;13.43;;;12.85;;
6121;SDS011;3091;51.506;7.672;2023-06-10T13:58:50;13.20;;;12.70;;
6121;SDS011;3091;51.506;7.672;2023-06-10T14:01:16;13.77;;;13.27;;
6121;SDS011;3091;51.506;7.672;2023-06-10T14:03:42;12.10;;;11.70;;
6121;SDS011;3091;51.506;7.672;2023-06-10T14:06:08;12.33;;;11.90;;
6121;SDS011;3091;51.506;7.672;2023-06-10T14:08:34;12.83;;;12.40;;
6121;SDS011;3091;51.506;7.672;2023-06-10T14:11:03;12.90;;;12.50;;
6121;SDS011;3091;51.506;7.672;2023-06-10T14:13:29;14.10;;;13.50;;
6121;SDS011;3091;51.506;7.672;2023-06-10T14:15:55;14.02;;;13.52;;
6121;SDS011;3091;51.506;7.672;2023-06-10T14:18:22;13.20;;;12.70;;
6121;SDS011;3091;51.506;7.672;2023-06-10T14:20:48;14.90;;;14.30;;
6121;SDS011;3091;51.506;7.672;2023-06-10T14:23:14;13.53;;;13.03;;
6121;SDS011;3091;51.506;7.672;2023-06-10T14:25:40;15.13;;;14.47;;
6121;SDS011;3091;51.506;7.672;2023-06-10T14:28:06;12.87;;;12.47;;
6121;SDS011;3091;51.506;7.672;2023-06-10T14:30:32;14.57;;;13.97;;
6121;SDS011;3091;51.506;7.672;2023-06-10T14:33:00;12.67;;;12.27;;
6121;SDS011;3091;51.506;7.672;2023-06-10T14:35:27;13.70;;;13.20;;
6121;SDS011;3091;51.506;7.672;2023-06-10T14:37:53;12.23;;;11.83;;
6121;SDS011;3091;51.506;7.672;2023-06-10T14:40:19;12.07;;;11.67;;
6121;SDS011;3091;51.506;7.672;2023-06-10T14:42:47;12.63;;;12.23;;
6121;SDS011;3091;51.506;7.672;2023-06-10T14:45:14;13.00;;;12.47;;
6121;SDS011;3091;51.506;7.672;2023-06-10T14:47:40;12.13;;;11.73;;
6121;SDS011;3091;51.506;7.672;2023-06-10T14:50:06;12.63;;;12.23;;
6121;SDS011;3091;51.506;7.672;2023-06-10T14:52:32;12.60;;;12.20;;
6121;SDS011;3091;51.506;7.672;2023-06-10T14:54:58;12.32;;;11.90;;
6121;SDS011;3091;51.506;7.672;2023-06-10T14:57:24;13.50;;;13.00;;
6121;SDS011;3091;51.506;7.672;2023-06-10T14:59:50;11.90;;;11.50;;
6121;SDS011;3091;51.506;7.672;2023-06-10T15:02:16;13.30;;;12.80;;
6121;SDS011;3091;51.506;7.672;2023-06-10T15:04:42;12.90;;;12.50;;
6121;SDS011;3091;51.506;7.672;2023-06-10T15:07:08;12.93;;;12.43;;
6121;SDS011;3091;51.506;7.672;2023-06-10T15:09:34;12.60;;;12.13;;